Market Drayton, United Kingdom
Current Conditions -  °F | °C
As of 2:50 PM on Saturday 20 Dec 2014 (Local Time) from EGOS Reporting Station
Few Clouds Few Clouds  
Wind Chill: 42°   Ceiling: Unl
Heat Index: 46°   Visibility: 6mi
Dew Point: 37°   Wind: 9mph
Humidity: 71%   Direction: 290°WNW
Pressure: 30.3"   Gusts: NA
Location:  52.91°N, 2.49°W
Report Text: EGOS 201450Z AUTO 29008KT 9999 FEW170/// 08/03 Q1026
Loading
Personal Weather Stations






























Interactive Weather Map New forecast layout! Learn more

10-Day Weather Forecast

Advertisements
Track Severe Weather on mobile